^^
Saratoga-Weather Station Historical Data
Daily Summary for October 8, 2020 Units:  Both    English   Metric
Daily Weekly Monthly Yearly Custom
  High: Low: Average:
Temperature: 63 °F /  17.2 °C 51.4 °F /  10.8 °C 56.3 °F /  13.5 °C
Dew Point: 56.3 °F /  13.5 °C 49.5 °F /  9.7 °C 53.1 °F /  11.7 °C
Humidity: 95% 76% 90%
Wind Speed: 10.1mph /  16.3km/h - 2.1mph /  3.4km/h
Wind Gust: 17mph /  27.4km/h - -
Wind- - SW
Pressure: 30.1 in /  1020.0 hPa 30 in /  1016.9 hPa -
Precipitation: 0.05 in /  1.3 mm    
Historical Graphs
 
 
Tabular Data for October 8, 2020
Time Temperature Dew Point Pressure Wind Wind Speed Wind Gust Humidity Rainfall Rate (Hourly) solar
00:02 52.2 °F /  11.2 °C 49.6 °F /  9.8 °C 30.1in /  1019.6hPa WSW 0.9mph /  1.4km/h 2mph /  3.2km/h 91% 0in /  0.0mm 0 W/m2
00:07 52.2 °F /  11.2 °C 49.6 °F /  9.8 °C 30.1in /  1019.6hPa West 0.9mph /  1.4km/h 2mph /  3.2km/h 91% 0in /  0.0mm 0 W/m2
00:12 52 °F /  11.1 °C 49.5 °F /  9.7 °C 30.1in /  1019.6hPa Calm   2mph /  3.2km/h 91% 0in /  0.0mm 0 W/m2
00:17 52 °F /  11.1 °C 49.6 °F /  9.8 °C 30.1in /  1020.0hPa West 2.9mph /  4.7km/h 5mph /  8km/h 92% 0in /  0.0mm 0 W/m2
00:22 52 °F /  11.1 °C 49.6 °F /  9.8 °C 30.1in /  1020.0hPa Calm   2mph /  3.2km/h 92% 0in /  0.0mm 0 W/m2
00:27 52 °F /  11.1 °C 49.6 °F /  9.8 °C 30.1in /  1020.0hPa NNW 2mph /  3.2km/h 5mph /  8km/h 92% 0in /  0.0mm 0 W/m2
00:32 52 °F /  11.1 °C 49.6 °F /  9.8 °C 30.1in /  1020.0hPa Calm   2mph /  3.2km/h 92% 0in /  0.0mm 0 W/m2
00:37 51.8 °F /  11 °C 49.6 °F /  9.8 °C 30.1in /  1020.0hPa Calm   2mph /  3.2km/h 92% 0in /  0.0mm 0 W/m2
00:42 51.8 °F /  11 °C 49.6 °F /  9.8 °C 30.1in /  1020.0hPa Calm   1mph /  1.6km/h 92% 0in /  0.0mm 0 W/m2
00:47 51.6 °F /  10.9 °C 49.5 °F /  9.7 °C 30.1in /  1020.0hPa WSW 2mph /  3.2km/h 5mph /  8km/h 92% 0in /  0.0mm 0 W/m2
00:52 51.6 °F /  10.9 °C 49.5 °F /  9.7 °C 30.1in /  1020.0hPa SSE 0.9mph /  1.4km/h 2mph /  3.2km/h 92% 0in /  0.0mm 0 W/m2
00:57 51.6 °F /  10.9 °C 49.5 °F /  9.7 °C 30.1in /  1019.6hPa NW 2mph /  3.2km/h 5mph /  8km/h 92% 0in /  0.0mm 0 W/m2
01:02 51.6 °F /  10.9 °C 49.5 °F /  9.7 °C 30.1in /  1019.6hPa Calm   1mph /  1.6km/h 92% 0in /  0.0mm 0 W/m2
01:07 51.4 °F /  10.8 °C 49.5 °F /  9.7 °C 30.1in /  1019.6hPa WNW 2.9mph /  4.7km/h 3mph /  4.8km/h 93% 0in /  0.0mm 0 W/m2
01:12 51.6 °F /  10.9 °C 49.6 °F /  9.8 °C 30.1in /  1019.6hPa NNW 0.9mph /  1.4km/h 2mph /  3.2km/h 93% 0in /  0.0mm 0 W/m2
01:17 51.6 °F /  10.9 °C 49.6 °F /  9.8 °C 30.1in /  1019.6hPa NNW 0.9mph /  1.4km/h 2mph /  3.2km/h 93% 0in /  0.0mm 0 W/m2
01:22 51.6 °F /  10.9 °C 49.6 °F /  9.8 °C 30.1in /  1019.6hPa WSW 2mph /  3.2km/h 6mph /  9.7km/h 93% 0in /  0.0mm 0 W/m2
01:27 51.8 °F /  11 °C 49.8 °F /  9.9 °C 30.1in /  1019.6hPa NW 2.9mph /  4.7km/h 3mph /  4.8km/h 93% 0in /  0.0mm 0 W/m2
01:32 51.8 °F /  11 °C 49.8 °F /  9.9 °C 30.1in /  1019.6hPa NW 0.9mph /  1.4km/h 2mph /  3.2km/h 93% 0in /  0.0mm 0 W/m2
01:37 51.8 °F /  11 °C 49.8 °F /  9.9 °C 30.1in /  1019.6hPa Calm     93% 0in /  0.0mm 0 W/m2
01:42 51.8 °F /  11 °C 49.8 °F /  9.9 °C 30.1in /  1019.6hPa NE 0.9mph /  1.4km/h 1mph /  1.6km/h 93% 0in /  0.0mm 0 W/m2
01:47 51.6 °F /  10.9 °C 49.6 °F /  9.8 °C 30.1in /  1019.6hPa WSW 0.9mph /  1.4km/h 6mph /  9.7km/h 93% 0in /  0.0mm 0 W/m2
01:52 51.6 °F /  10.9 °C 49.6 °F /  9.8 °C 30.1in /  1019.6hPa NNW 2.9mph /  4.7km/h 3mph /  4.8km/h 93% 0in /  0.0mm 0 W/m2
01:57 51.6 °F /  10.9 °C 49.6 °F /  9.8 °C 30.1in /  1019.6hPa West 2mph /  3.2km/h 3mph /  4.8km/h 93% 0in /  0.0mm 0 W/m2
02:02 51.6 °F /  10.9 °C 49.6 °F /  9.8 °C 30.1in /  1019.6hPa NW 0.9mph /  1.4km/h 1mph /  1.6km/h 93% 0in /  0.0mm 0 W/m2
02:07 51.8 °F /  11 °C 49.8 °F /  9.9 °C 30.1in /  1019.6hPa SW 2mph /  3.2km/h 5mph /  8km/h 93% 0in /  0.0mm 0 W/m2
02:12 51.6 °F /  10.9 °C 49.6 °F /  9.8 °C 30.1in /  1019.6hPa Calm   1mph /  1.6km/h 93% 0in /  0.0mm 0 W/m2
02:17 51.6 °F /  10.9 °C 49.6 °F /  9.8 °C 30.1in /  1019.6hPa Calm   3mph /  4.8km/h 93% 0in /  0.0mm 0 W/m2
02:22 51.6 °F /  10.9 °C 49.6 °F /  9.8 °C 30.1in /  1019.6hPa Calm   4mph /  6.4km/h 93% 0in /  0.0mm 0 W/m2
02:27 51.8 °F /  11 °C 49.8 °F /  9.9 °C 30.1in /  1019.3hPa West 2mph /  3.2km/h 2mph /  3.2km/h 93% 0in /  0.0mm 0 W/m2
02:32 51.8 °F /  11 °C 49.8 °F /  9.9 °C 30.1in /  1019.3hPa Calm   3mph /  4.8km/h 93% 0in /  0.0mm 0 W/m2
02:37 51.8 °F /  11 °C 49.8 °F /  9.9 °C 30.1in /  1019.6hPa NNW 0.9mph /  1.4km/h 3mph /  4.8km/h 93% 0in /  0.0mm 0 W/m2
02:42 51.8 °F /  11 °C 49.8 °F /  9.9 °C 30.1in /  1019.6hPa NW 2.9mph /  4.7km/h 3mph /  4.8km/h 93% 0in /  0.0mm 0 W/m2
02:47 51.8 °F /  11 °C 49.8 °F /  9.9 °C 30.1in /  1019.6hPa NW 0.9mph /  1.4km/h 3mph /  4.8km/h 93% 0in /  0.0mm 0 W/m2
02:52 52 °F /  11.1 °C 50 °F /  10 °C 30.1in /  1019.6hPa ENE 0.9mph /  1.4km/h 4mph /  6.4km/h 93% 0in /  0.0mm 0 W/m2
02:57 52 °F /  11.1 °C 50 °F /  10 °C 30.1in /  1019.6hPa Calm   3mph /  4.8km/h 93% 0in /  0.0mm 0 W/m2
03:02 52 °F /  11.1 °C 50 °F /  10 °C 30.1in /  1019.6hPa NW 2.9mph /  4.7km/h 6mph /  9.7km/h 93% 0in /  0.0mm 0 W/m2
03:07 52 °F /  11.1 °C 50 °F /  10 °C 30.1in /  1019.6hPa Calm   2mph /  3.2km/h 93% 0in /  0.0mm 0 W/m2
03:12 52 °F /  11.1 °C 50 °F /  10 °C 30.1in /  1019.6hPa SSE 4mph /  6.4km/h 4mph /  6.4km/h 93% 0in /  0.0mm 0 W/m2
03:17 52.2 °F /  11.2 °C 50.2 °F /  10.1 °C 30.1in /  1019.6hPa NW 2.9mph /  4.7km/h 3mph /  4.8km/h 93% 0in /  0.0mm 0 W/m2
03:22 52.2 °F /  11.2 °C 49.8 °F /  9.9 °C 30.1in /  1019.3hPa West 0.9mph /  1.4km/h 4mph /  6.4km/h 92% 0in /  0.0mm 0 W/m2
03:27 52.2 °F /  11.2 °C 49.8 °F /  9.9 °C 30.1in /  1019.3hPa Calm   3mph /  4.8km/h 92% 0in /  0.0mm 0 W/m2
03:32 52.2 °F /  11.2 °C 49.8 °F /  9.9 °C 30.1in /  1019.3hPa Calm   1mph /  1.6km/h 92% 0in /  0.0mm 0 W/m2
03:37 52.2 °F /  11.2 °C 49.8 °F /  9.9 °C 30.1in /  1019.3hPa WNW 0.9mph /  1.4km/h 2mph /  3.2km/h 92% 0in /  0.0mm 0 W/m2
03:42 52.2 °F /  11.2 °C 49.8 °F /  9.9 °C 30.1in /  1019.3hPa West 0.9mph /  1.4km/h 2mph /  3.2km/h 92% 0in /  0.0mm 0 W/m2
03:47 52.2 °F /  11.2 °C 49.8 °F /  9.9 °C 30.1in /  1019.3hPa NE 0.9mph /  1.4km/h 2mph /  3.2km/h 92% 0in /  0.0mm 0 W/m2
03:52 52.2 °F /  11.2 °C 49.8 °F /  9.9 °C 30.1in /  1019.3hPa NNE 0.9mph /  1.4km/h 4mph /  6.4km/h 92% 0in /  0.0mm 0 W/m2
03:57 52.3 °F /  11.3 °C 50 °F /  10 °C 30.1in /  1019.3hPa West 2mph /  3.2km/h 4mph /  6.4km/h 92% 0in /  0.0mm 0 W/m2
04:02 52.3 °F /  11.3 °C 50 °F /  10 °C 30.1in /  1019.3hPa WNW 2mph /  3.2km/h 3mph /  4.8km/h 92% 0in /  0.0mm 0 W/m2
04:07 52.3 °F /  11.3 °C 50 °F /  10 °C 30.1in /  1019.3hPa SW 2mph /  3.2km/h 4mph /  6.4km/h 92% 0in /  0.0mm 0 W/m2
04:12 52.3 °F /  11.3 °C 50 °F /  10 °C 30.1in /  1019.3hPa ENE 0.9mph /  1.4km/h 3mph /  4.8km/h 92% 0in /  0.0mm 0 W/m2
04:17 52.3 °F /  11.3 °C 50 °F /  10 °C 30.1in /  1019.3hPa Calm   2mph /  3.2km/h 92% 0in /  0.0mm 0 W/m2
04:22 52.3 °F /  11.3 °C 50 °F /  10 °C 30.1in /  1019.3hPa Calm   2mph /  3.2km/h 92% 0in /  0.0mm 0 W/m2
04:27 52.3 °F /  11.3 °C 50 °F /  10 °C 30.1in /  1019.3hPa Calm   2mph /  3.2km/h 92% 0in /  0.0mm 0 W/m2
04:32 52.2 °F /  11.2 °C 49.8 °F /  9.9 °C 30.1in /  1019.3hPa NNE 2mph /  3.2km/h 4mph /  6.4km/h 92% 0in /  0.0mm 0 W/m2
04:37 52.2 °F /  11.2 °C 49.8 °F /  9.9 °C 30.1in /  1019.3hPa Calm   2mph /  3.2km/h 92% 0in /  0.0mm 0 W/m2
04:42 52.2 °F /  11.2 °C 50.2 °F /  10.1 °C 30.1in /  1019.3hPa North 0.9mph /  1.4km/h 2mph /  3.2km/h 93% 0in /  0.0mm 0 W/m2
04:47 52.2 °F /  11.2 °C 50.2 °F /  10.1 °C 30.1in /  1019.0hPa Calm   2mph /  3.2km/h 93% 0in /  0.0mm 0 W/m2
04:52 52.2 °F /  11.2 °C 50.2 °F /  10.1 °C 30.1in /  1019.0hPa NNE 2mph /  3.2km/h 2mph /  3.2km/h 93% 0in /  0.0mm 0 W/m2
04:57 52.2 °F /  11.2 °C 50.2 °F /  10.1 °C 30.1in /  1019.0hPa East 2mph /  3.2km/h 8mph /  12.9km/h 93% 0in /  0.0mm 0 W/m2
05:02 52.2 °F /  11.2 °C 50.2 °F /  10.1 °C 30.1in /  1019.0hPa WNW 0.9mph /  1.4km/h 4mph /  6.4km/h 93% 0in /  0.0mm 0 W/m2
05:07 52.2 °F /  11.2 °C 50.2 °F /  10.1 °C 30.1in /  1019.0hPa North 0.9mph /  1.4km/h 8mph /  12.9km/h 93% 0in /  0.0mm 0 W/m2
05:12 52.3 °F /  11.3 °C 50.4 °F /  10.2 °C 30.1in /  1019.0hPa NW 2mph /  3.2km/h 4mph /  6.4km/h 93% 0in /  0.0mm 0 W/m2
05:17 52.3 °F /  11.3 °C 50.4 °F /  10.2 °C 30.1in /  1019.0hPa NE 0.9mph /  1.4km/h 3mph /  4.8km/h 93% 0in /  0.0mm 0 W/m2
05:22 52.3 °F /  11.3 °C 50.4 °F /  10.2 °C 30.1in /  1019.0hPa North 0.9mph /  1.4km/h 4mph /  6.4km/h 93% 0in /  0.0mm 0 W/m2
05:27 52.3 °F /  11.3 °C 50.4 °F /  10.2 °C 30.1in /  1019.0hPa NE 2.9mph /  4.7km/h 3mph /  4.8km/h 93% 0in /  0.0mm 0 W/m2
05:32 52.3 °F /  11.3 °C 50.4 °F /  10.2 °C 30.1in /  1019.0hPa ENE 0.9mph /  1.4km/h 2mph /  3.2km/h 93% 0in /  0.0mm 0 W/m2
05:37 52.3 °F /  11.3 °C 50.4 °F /  10.2 °C 30.1in /  1019.0hPa ESE 2mph /  3.2km/h 2mph /  3.2km/h 93% 0in /  0.0mm 0 W/m2
05:42 52.3 °F /  11.3 °C 50.4 °F /  10.2 °C 30.1in /  1019.0hPa ESE 4mph /  6.4km/h 6mph /  9.7km/h 93% 0in /  0.0mm 0 W/m2
05:47 52.5 °F /  11.4 °C 50.5 °F /  10.3 °C 30.1in /  1019.0hPa NE 0.9mph /  1.4km/h 2mph /  3.2km/h 93% 0in /  0.0mm 0 W/m2
05:52 52.5 °F /  11.4 °C 50.5 °F /  10.3 °C 30.1in /  1018.6hPa NE 4mph /  6.4km/h 5mph /  8km/h 93% 0in /  0.0mm 0 W/m2
05:57 52.5 °F /  11.4 °C 50.5 °F /  10.3 °C 30.1in /  1018.6hPa NNE 0.9mph /  1.4km/h 3mph /  4.8km/h 93% 0in /  0.0mm 0 W/m2
06:02 52.5 °F /  11.4 °C 50.5 °F /  10.3 °C 30.1in /  1019.0hPa Calm   2mph /  3.2km/h 93% 0in /  0.0mm 0 W/m2
06:07 52.7 °F /  11.5 °C 50.7 °F /  10.4 °C 30.1in /  1018.6hPa ENE 2.9mph /  4.7km/h 4mph /  6.4km/h 93% 0in /  0.0mm 0 W/m2
06:12 52.9 °F /  11.6 °C 50.5 °F /  10.3 °C 30.1in /  1018.6hPa WNW 0.9mph /  1.4km/h 3mph /  4.8km/h 92% 0in /  0.0mm 0 W/m2
06:17 52.9 °F /  11.6 °C 50.5 °F /  10.3 °C 30.1in /  1018.6hPa Calm   2mph /  3.2km/h 92% 0in /  0.0mm 0 W/m2
06:22 52.9 °F /  11.6 °C 50.5 °F /  10.3 °C 30.1in /  1018.6hPa Calm   2mph /  3.2km/h 92% 0in /  0.0mm 0 W/m2
06:27 52.9 °F /  11.6 °C 50.5 °F /  10.3 °C 30.1in /  1018.6hPa Calm   4mph /  6.4km/h 92% 0in /  0.0mm 0 W/m2
06:32 52.9 °F /  11.6 °C 50.5 °F /  10.3 °C 30.1in /  1018.3hPa SE 0.9mph /  1.4km/h 5mph /  8km/h 92% 0in /  0.0mm 0 W/m2
06:37 52.9 °F /  11.6 °C 50.5 °F /  10.3 °C 30.1in /  1018.3hPa North 0.9mph /  1.4km/h 3mph /  4.8km/h 92% 0in /  0.0mm 0 W/m2
06:42 52.9 °F /  11.6 °C 50.5 °F /  10.3 °C 30.1in /  1018.3hPa NNE 2mph /  3.2km/h 4mph /  6.4km/h 92% 0in /  0.0mm 0 W/m2
06:47 52.9 °F /  11.6 °C 50.5 °F /  10.3 °C 30.1in /  1018.3hPa NE 2mph /  3.2km/h 4mph /  6.4km/h 92% 0in /  0.0mm 0 W/m2
06:52 53.1 °F /  11.7 °C 50.7 °F /  10.4 °C 30.1in /  1018.3hPa Calm   6mph /  9.7km/h 92% 0in /  0.0mm 0 W/m2
06:57 53.1 °F /  11.7 °C 50.7 °F /  10.4 °C 30.1in /  1018.3hPa West 2mph /  3.2km/h 3mph /  4.8km/h 92% 0in /  0.0mm 0 W/m2
07:02 53.1 °F /  11.7 °C 50.7 °F /  10.4 °C 30.1in /  1018.3hPa North 2mph /  3.2km/h 6mph /  9.7km/h 92% 0in /  0.0mm 0 W/m2
07:07 53.2 °F /  11.8 °C 50.9 °F /  10.5 °C 30.1in /  1018.3hPa Calm   2mph /  3.2km/h 92% 0in /  0.0mm 0 W/m2
07:12 53.2 °F /  11.8 °C 50.9 °F /  10.5 °C 30.1in /  1018.3hPa NW 2mph /  3.2km/h 3mph /  4.8km/h 92% 0in /  0.0mm 0 W/m2
07:17 53.2 °F /  11.8 °C 50.9 °F /  10.5 °C 30.1in /  1018.3hPa NE 2mph /  3.2km/h 4mph /  6.4km/h 92% 0in /  0.0mm 0 W/m2
07:23 53.2 °F /  11.8 °C 50.9 °F /  10.5 °C 30.1in /  1018.3hPa North 2.9mph /  4.7km/h 3mph /  4.8km/h 92% 0in /  0.0mm 0 W/m2
07:28 53.2 °F /  11.8 °C 50.9 °F /  10.5 °C 30.1in /  1018.3hPa North 0.9mph /  1.4km/h 1mph /  1.6km/h 92% 0in /  0.0mm 0 W/m2
07:33 53.2 °F /  11.8 °C 50.9 °F /  10.5 °C 30.1in /  1018.3hPa North 0.9mph /  1.4km/h 3mph /  4.8km/h 92% 0in /  0.0mm 0 W/m2
07:38 53.2 °F /  11.8 °C 50.9 °F /  10.5 °C 30.1in /  1018.3hPa NNE 2mph /  3.2km/h 3mph /  4.8km/h 92% 0in /  0.0mm 0 W/m2
07:43 53.2 °F /  11.8 °C 50.9 °F /  10.5 °C 30.1in /  1018.3hPa NW 0.9mph /  1.4km/h 3mph /  4.8km/h 92% 0in /  0.0mm 0 W/m2
07:48 53.1 °F /  11.7 °C 51.1 °F /  10.6 °C 30.1in /  1018.3hPa NE 0.9mph /  1.4km/h 1mph /  1.6km/h 93% 0in /  0.0mm 0 W/m2
07:53 53.1 °F /  11.7 °C 51.1 °F /  10.6 °C 30.1in /  1018.0hPa NNE 0.9mph /  1.4km/h 3mph /  4.8km/h 93% 0in /  0.0mm 0 W/m2
07:58 52.9 °F /  11.6 °C 50.9 °F /  10.5 °C 30.1in /  1018.0hPa NE 2.9mph /  4.7km/h 3mph /  4.8km/h 93% 0in /  0.0mm 0 W/m2
08:03 52.9 °F /  11.6 °C 50.9 °F /  10.5 °C 30.1in /  1018.0hPa ESE 0.9mph /  1.4km/h 5mph /  8km/h 93% 0.01in /  0.2mm 5 W/m2
08:08 52.9 °F /  11.6 °C 50.9 °F /  10.5 °C 30.1in /  1018.0hPa NW 8.1mph /  13km/h 8mph /  12.9km/h 93% 0.01in /  0.2mm 5 W/m2
08:13 53.1 °F /  11.7 °C 51.1 °F /  10.6 °C 30.1in /  1018.0hPa NNW 4mph /  6.4km/h 12mph /  19.3km/h 93% 0.01in /  0.2mm 7 W/m2
08:18 53.1 °F /  11.7 °C 51.1 °F /  10.6 °C 30.1in /  1018.0hPa Calm   2mph /  3.2km/h 93% 0.01in /  0.2mm 5 W/m2
08:23 53.1 °F /  11.7 °C 51.1 °F /  10.6 °C 30.1in /  1018.0hPa NE 4mph /  6.4km/h 4mph /  6.4km/h 93% 0.01in /  0.2mm 9 W/m2
08:28 53.1 °F /  11.7 °C 51.1 °F /  10.6 °C 30.1in /  1018.0hPa SW 0.9mph /  1.4km/h 5mph /  8km/h 93% 0.01in /  0.2mm 16 W/m2
08:33 53.1 °F /  11.7 °C 51.4 °F /  10.8 °C 30.1in /  1018.0hPa NNW 2.9mph /  4.7km/h 4mph /  6.4km/h 94% 0.02in /  0.5mm 18 W/m2
08:38 53.1 °F /  11.7 °C 51.4 °F /  10.8 °C 30.1in /  1018.0hPa West 2.9mph /  4.7km/h 4mph /  6.4km/h 94% 0.02in /  0.5mm 12 W/m2
08:43 53.1 °F /  11.7 °C 51.4 °F /  10.8 °C 30.1in /  1018.0hPa North 0.9mph /  1.4km/h 3mph /  4.8km/h 94% 0.02in /  0.5mm 14 W/m2
08:48 53.1 °F /  11.7 °C 51.4 °F /  10.8 °C 30.1in /  1018.0hPa WNW 2.9mph /  4.7km/h 4mph /  6.4km/h 94% 0.02in /  0.5mm 25 W/m2
08:53 53.1 °F /  11.7 °C 51.4 °F /  10.8 °C 30.1in /  1018.0hPa North 0.9mph /  1.4km/h 3mph /  4.8km/h 94% 0.02in /  0.5mm 18 W/m2
08:58 53.1 °F /  11.7 °C 51.4 °F /  10.8 °C 30.1in /  1018.0hPa NW 2mph /  3.2km/h 4mph /  6.4km/h 94% 0.02in /  0.5mm 12 W/m2
09:03 53.1 °F /  11.7 °C 51.4 °F /  10.8 °C 30.1in /  1018.0hPa NNW 2.9mph /  4.7km/h 4mph /  6.4km/h 94% 0.02in /  0.5mm 14 W/m2
09:08 53.1 °F /  11.7 °C 51.4 °F /  10.8 °C 30.1in /  1018.0hPa Calm   4mph /  6.4km/h 94% 0.02in /  0.5mm 21 W/m2
09:13 53.1 °F /  11.7 °C 51.6 °F /  10.9 °C 30.1in /  1018.3hPa WNW 0.9mph /  1.4km/h 3mph /  4.8km/h 95% 0.02in /  0.5mm 26 W/m2
09:18 53.1 °F /  11.7 °C 51.6 °F /  10.9 °C 30.1in /  1018.3hPa North 4mph /  6.4km/h 4mph /  6.4km/h 95% 0.02in /  0.5mm 39 W/m2
09:23 53.1 °F /  11.7 °C 51.6 °F /  10.9 °C 30.1in /  1018.3hPa North 0.9mph /  1.4km/h 5mph /  8km/h 95% 0.02in /  0.5mm 39 W/m2
09:28 53.1 °F /  11.7 °C 51.6 °F /  10.9 °C 30.1in /  1018.0hPa North 0.9mph /  1.4km/h 6mph /  9.7km/h 95% 0.03in /  0.8mm 39 W/m2
09:33 53.2 °F /  11.8 °C 51.8 °F /  11 °C 30.1in /  1018.3hPa WNW 2.9mph /  4.7km/h 6mph /  9.7km/h 95% 0.02in /  0.5mm 37 W/m2
09:38 53.2 °F /  11.8 °C 51.8 °F /  11 °C 30.1in /  1018.3hPa NNE 0.9mph /  1.4km/h 6mph /  9.7km/h 95% 0.02in /  0.5mm 44 W/m2
09:43 53.2 °F /  11.8 °C 51.8 °F /  11 °C 30.1in /  1018.3hPa WNW 2mph /  3.2km/h 4mph /  6.4km/h 95% 0.02in /  0.5mm 53 W/m2
09:48 53.4 °F /  11.9 °C 52 °F /  11.1 °C 30.1in /  1018.3hPa Calm   1mph /  1.6km/h 95% 0.02in /  0.5mm 62 W/m2
09:53 53.4 °F /  11.9 °C 52 °F /  11.1 °C 30.1in /  1018.3hPa North 0.9mph /  1.4km/h 2mph /  3.2km/h 95% 0.02in /  0.5mm 54 W/m2
09:58 53.4 °F /  11.9 °C 52 °F /  11.1 °C 30.1in /  1018.3hPa NW 2mph /  3.2km/h 6mph /  9.7km/h 95% 0.02in /  0.5mm 44 W/m2
10:03 53.6 °F /  12 °C 52.2 °F /  11.2 °C 30.1in /  1018.3hPa WNW 2mph /  3.2km/h 4mph /  6.4km/h 95% 0.01in /  0.2mm 47 W/m2
10:08 53.8 °F /  12.1 °C 52.3 °F /  11.3 °C 30.1in /  1018.6hPa WNW 2mph /  3.2km/h 5mph /  8km/h 95% 0.01in /  0.2mm 54 W/m2
10:13 53.8 °F /  12.1 °C 52.3 °F /  11.3 °C 30.1in /  1018.3hPa NE 2mph /  3.2km/h 4mph /  6.4km/h 95% 0.01in /  0.2mm 88 W/m2
10:18 54 °F /  12.2 °C 52.5 °F /  11.4 °C 30.1in /  1018.6hPa ENE 4.9mph /  7.9km/h 8mph /  12.9km/h 95% 0.01in /  0.2mm 77 W/m2
10:23 54 °F /  12.2 °C 52.5 °F /  11.4 °C 30.1in /  1018.3hPa NE 2mph /  3.2km/h 4mph /  6.4km/h 95% 0.01in /  0.2mm 97 W/m2
10:28 54.1 °F /  12.3 °C 52.7 °F /  11.5 °C 30.1in /  1018.3hPa ESE 0.9mph /  1.4km/h 2mph /  3.2km/h 95% 0in /  0.0mm 56 W/m2
10:33 54.1 °F /  12.3 °C 52.7 °F /  11.5 °C 30.1in /  1018.6hPa NW 0.9mph /  1.4km/h 7mph /  11.3km/h 95% 0in /  0.0mm 62 W/m2
10:38 54.1 °F /  12.3 °C 52.7 °F /  11.5 °C 30.1in /  1018.6hPa West 4mph /  6.4km/h 4mph /  6.4km/h 95% 0in /  0.0mm 84 W/m2
10:43 54.3 °F /  12.4 °C 52.9 °F /  11.6 °C 30.1in /  1018.6hPa NW 2mph /  3.2km/h 6mph /  9.7km/h 95% 0in /  0.0mm 72 W/m2
10:48 54.3 °F /  12.4 °C 52.9 °F /  11.6 °C 30.1in /  1018.6hPa NW 0.9mph /  1.4km/h 4mph /  6.4km/h 95% 0in /  0.0mm 84 W/m2
10:53 54.3 °F /  12.4 °C 52.9 °F /  11.6 °C 30.1in /  1018.6hPa ENE 0.9mph /  1.4km/h 7mph /  11.3km/h 95% 0in /  0.0mm 83 W/m2
10:58 54.3 °F /  12.4 °C 52.9 °F /  11.6 °C 30.1in /  1018.6hPa NE 0.9mph /  1.4km/h 4mph /  6.4km/h 95% 0.01in /  0.2mm 54 W/m2
11:03 54.5 °F /  12.5 °C 53.1 °F /  11.7 °C 30.1in /  1018.3hPa NNE 2mph /  3.2km/h 3mph /  4.8km/h 95% 0.01in /  0.2mm 60 W/m2
11:08 54.7 °F /  12.6 °C 53.2 °F /  11.8 °C 30.1in /  1018.6hPa Calm   4mph /  6.4km/h 95% 0.01in /  0.2mm 67 W/m2
11:13 54.7 °F /  12.6 °C 53.2 °F /  11.8 °C 30.1in /  1018.3hPa NW 0.9mph /  1.4km/h 6mph /  9.7km/h 95% 0.01in /  0.2mm 60 W/m2
11:18 54.7 °F /  12.6 °C 53.2 °F /  11.8 °C 30.1in /  1018.6hPa West 0.9mph /  1.4km/h 7mph /  11.3km/h 95% 0.01in /  0.2mm 53 W/m2
11:23 54.7 °F /  12.6 °C 53.2 °F /  11.8 °C 30.1in /  1018.6hPa Calm   2mph /  3.2km/h 95% 0.01in /  0.2mm 72 W/m2
11:28 54.9 °F /  12.7 °C 53.4 °F /  11.9 °C 30.1in /  1018.6hPa SSE 2.9mph /  4.7km/h 6mph /  9.7km/h 95% 0.01in /  0.2mm 77 W/m2
11:33 55 °F /  12.8 °C 53.6 °F /  12 °C 30.1in /  1018.3hPa NE 2mph /  3.2km/h 4mph /  6.4km/h 95% 0.01in /  0.2mm 56 W/m2
11:38 55 °F /  12.8 °C 53.6 °F /  12 °C 30.1in /  1018.3hPa North 0.9mph /  1.4km/h 6mph /  9.7km/h 95% 0.01in /  0.2mm 76 W/m2
11:43 55.2 °F /  12.9 °C 53.8 °F /  12.1 °C 30.1in /  1018.6hPa North 2mph /  3.2km/h 2mph /  3.2km/h 95% 0.01in /  0.2mm 67 W/m2
11:48 55.2 °F /  12.9 °C 53.8 °F /  12.1 °C 30.1in /  1018.6hPa South 0.9mph /  1.4km/h 3mph /  4.8km/h 95% 0.01in /  0.2mm 70 W/m2
11:53 55.4 °F /  13 °C 54 °F /  12.2 °C 30.1in /  1018.3hPa ENE 2mph /  3.2km/h 6mph /  9.7km/h 95% 0.01in /  0.2mm 65 W/m2
11:58 55.6 °F /  13.1 °C 54.1 °F /  12.3 °C 30.1in /  1018.3hPa Calm   5mph /  8km/h 95% 0in /  0.0mm 60 W/m2
12:04 55.6 °F /  13.1 °C 54.1 °F /  12.3 °C 30.1in /  1018.3hPa West 4mph /  6.4km/h 4mph /  6.4km/h 95% 0in /  0.0mm 83 W/m2
12:09 55.8 °F /  13.2 °C 54.3 °F /  12.4 °C 30.1in /  1018.3hPa Calm   5mph /  8km/h 95% 0in /  0.0mm 77 W/m2
12:14 55.8 °F /  13.2 °C 54.3 °F /  12.4 °C 30.1in /  1018.6hPa SE 2.9mph /  4.7km/h 9mph /  14.5km/h 95% 0in /  0.0mm 98 W/m2
12:19 55.9 °F /  13.3 °C 54.5 °F /  12.5 °C 30.1in /  1018.3hPa West 2mph /  3.2km/h 7mph /  11.3km/h 95% 0in /  0.0mm 190 W/m2
12:24 56.1 °F /  13.4 °C 54.5 °F /  12.5 °C 30.1in /  1018.3hPa East 2mph /  3.2km/h 8mph /  12.9km/h 94% 0in /  0.0mm 107 W/m2
12:29 56.3 °F /  13.5 °C 54.9 °F /  12.7 °C 30.1in /  1018.3hPa East 0.9mph /  1.4km/h 5mph /  8km/h 95% 0in /  0.0mm 163 W/m2
12:34 56.5 °F /  13.6 °C 54.9 °F /  12.7 °C 30.1in /  1018.3hPa NNW 0.9mph /  1.4km/h 9mph /  14.5km/h 94% 0in /  0.0mm 178 W/m2
12:39 56.7 °F /  13.7 °C 55 °F /  12.8 °C 30.1in /  1018.0hPa NNE 0.9mph /  1.4km/h 7mph /  11.3km/h 94% 0in /  0.0mm 128 W/m2
12:44 56.8 °F /  13.8 °C 55.2 °F /  12.9 °C 30.1in /  1018.3hPa WNW 4.9mph /  7.9km/h 7mph /  11.3km/h 94% 0in /  0.0mm 204 W/m2
12:49 57 °F /  13.9 °C 55 °F /  12.8 °C 30.1in /  1018.0hPa NW 4mph /  6.4km/h 7mph /  11.3km/h 93% 0in /  0.0mm 232 W/m2
12:54 57.4 °F /  14.1 °C 55.4 °F /  13 °C 30.1in /  1018.0hPa WNW 0.9mph /  1.4km/h 9mph /  14.5km/h 93% 0in /  0.0mm 227 W/m2
12:59 57.6 °F /  14.2 °C 55.6 °F /  13.1 °C 30.1in /  1018.0hPa WNW 2.9mph /  4.7km/h 5mph /  8km/h 93% 0in /  0.0mm 343 W/m2
13:04 57.9 °F /  14.4 °C 55.6 °F /  13.1 °C 30.1in /  1018.0hPa WSW 4mph /  6.4km/h 6mph /  9.7km/h 92% 0in /  0.0mm 246 W/m2
13:09 58.5 °F /  14.7 °C 56.1 °F /  13.4 °C 30.1in /  1018.0hPa NW 6.9mph /  11.1km/h 9mph /  14.5km/h 92% 0in /  0.0mm 248 W/m2
13:14 58.6 °F /  14.8 °C 55.9 °F /  13.3 °C 30.1in /  1018.0hPa NW 2.9mph /  4.7km/h 4mph /  6.4km/h 91% 0in /  0.0mm 186 W/m2
13:19 58.6 °F /  14.8 °C 55.9 °F /  13.3 °C 30.1in /  1018.0hPa WSW 6.9mph /  11.1km/h 12mph /  19.3km/h 91% 0in /  0.0mm 149 W/m2
13:24 58.6 °F /  14.8 °C 55.8 °F /  13.2 °C 30.1in /  1018.0hPa WNW 8.1mph /  13km/h 9mph /  14.5km/h 90% 0in /  0.0mm 174 W/m2
13:29 58.6 °F /  14.8 °C 55.8 °F /  13.2 °C 30.1in /  1018.0hPa NNW 2mph /  3.2km/h 12mph /  19.3km/h 90% 0in /  0.0mm 199 W/m2
13:34 58.6 °F /  14.8 °C 55.4 °F /  13 °C 30.1in /  1018.0hPa West 2mph /  3.2km/h 11mph /  17.7km/h 89% 0in /  0.0mm 267 W/m2
13:39 59 °F /  15 °C 56.1 °F /  13.4 °C 30.1in /  1018.0hPa South 10.1mph /  16.3km/h 10mph /  16.1km/h 90% 0in /  0.0mm 302 W/m2
13:44 59.2 °F /  15.1 °C 55.9 °F /  13.3 °C 30.1in /  1018.0hPa NNE 2mph /  3.2km/h 4mph /  6.4km/h 89% 0in /  0.0mm 246 W/m2
13:49 59.5 °F /  15.3 °C 56.3 °F /  13.5 °C 30.1in /  1018.0hPa North 0.9mph /  1.4km/h 4mph /  6.4km/h 89% 0in /  0.0mm 265 W/m2
13:54 59.7 °F /  15.4 °C 56.1 °F /  13.4 °C 30.1in /  1018.0hPa NE 2mph /  3.2km/h 4mph /  6.4km/h 88% 0in /  0.0mm 290 W/m2
13:59 60.1 °F /  15.6 °C 56.1 °F /  13.4 °C 30.1in /  1017.6hPa West 4mph /  6.4km/h 6mph /  9.7km/h 87% 0in /  0.0mm 285 W/m2
14:04 60.3 °F /  15.7 °C 56.1 °F /  13.4 °C 30.1in /  1017.6hPa NNW 2.9mph /  4.7km/h 12mph /  19.3km/h 86% 0in /  0.0mm 246 W/m2
14:09 60.3 °F /  15.7 °C 55.8 °F /  13.2 °C 30.1in /  1017.6hPa NE 0.9mph /  1.4km/h 5mph /  8km/h 85% 0in /  0.0mm 162 W/m2
14:14 60.3 °F /  15.7 °C 55.8 °F /  13.2 °C 30.1in /  1017.6hPa WSW 2.9mph /  4.7km/h 9mph /  14.5km/h 85% 0in /  0.0mm 134 W/m2
14:19 60.6 °F /  15.9 °C 55.8 °F /  13.2 °C 30.1in /  1017.6hPa SSW 2mph /  3.2km/h 8mph /  12.9km/h 84% 0in /  0.0mm 163 W/m2
14:24 60.6 °F /  15.9 °C 55.4 °F /  13 °C 30.1in /  1017.6hPa West 2mph /  3.2km/h 9mph /  14.5km/h 83% 0in /  0.0mm 169 W/m2
14:29 60.4 °F /  15.8 °C 55.2 °F /  12.9 °C 30.1in /  1017.6hPa WNW 4mph /  6.4km/h 8mph /  12.9km/h 83% 0in /  0.0mm 86 W/m2
14:34 60.4 °F /  15.8 °C 55.2 °F /  12.9 °C 30.1in /  1017.6hPa WNW 6mph /  9.7km/h 9mph /  14.5km/h 83% 0in /  0.0mm 76 W/m2
14:39 60.3 °F /  15.7 °C 55 °F /  12.8 °C 30.1in /  1017.6hPa NE 0.9mph /  1.4km/h 4mph /  6.4km/h 83% 0in /  0.0mm 104 W/m2
14:44 60.1 °F /  15.6 °C 54.9 °F /  12.7 °C 30.1in /  1017.6hPa NE 4mph /  6.4km/h 7mph /  11.3km/h 83% 0in /  0.0mm 171 W/m2
14:49 60.3 °F /  15.7 °C 55.4 °F /  13 °C 30.1in /  1017.6hPa WNW 2mph /  3.2km/h 5mph /  8km/h 84% 0in /  0.0mm 221 W/m2
14:54 60.3 °F /  15.7 °C 55.4 °F /  13 °C 30.1in /  1017.6hPa WNW 2.9mph /  4.7km/h 3mph /  4.8km/h 84% 0in /  0.0mm 190 W/m2
14:59 60.4 °F /  15.8 °C 55.6 °F /  13.1 °C 30.1in /  1017.6hPa NNW 2mph /  3.2km/h 4mph /  6.4km/h 84% 0in /  0.0mm 146 W/m2
15:04 60.4 °F /  15.8 °C 55.2 °F /  12.9 °C 30.1in /  1017.6hPa SE 0.9mph /  1.4km/h 9mph /  14.5km/h 83% 0in /  0.0mm 192 W/m2
15:09 60.6 °F /  15.9 °C 55.4 °F /  13 °C 30.1in /  1017.6hPa WNW 2.9mph /  4.7km/h 6mph /  9.7km/h 83% 0in /  0.0mm 206 W/m2
15:14 60.8 °F /  16 °C 55.6 °F /  13.1 °C 30.1in /  1017.6hPa WNW 0.9mph /  1.4km/h 3mph /  4.8km/h 83% 0in /  0.0mm 167 W/m2
15:19 61 °F /  16.1 °C 55.4 °F /  13 °C 30in /  1017.3hPa North 0.9mph /  1.4km/h 4mph /  6.4km/h 82% 0in /  0.0mm 206 W/m2
15:24 61.2 °F /  16.2 °C 55.2 °F /  12.9 °C 30in /  1017.3hPa Calm   4mph /  6.4km/h 81% 0in /  0.0mm 202 W/m2
15:29 61.3 °F /  16.3 °C 55.4 °F /  13 °C 30in /  1017.3hPa North 2mph /  3.2km/h 3mph /  4.8km/h 81% 0in /  0.0mm 353 W/m2
15:34 61.7 °F /  16.5 °C 55.4 °F /  13 °C 30in /  1017.3hPa West 2.9mph /  4.7km/h 7mph /  11.3km/h 80% 0in /  0.0mm 397 W/m2
15:39 62.1 °F /  16.7 °C 55.8 °F /  13.2 °C 30in /  1017.3hPa West 4mph /  6.4km/h 4mph /  6.4km/h 80% 0in /  0.0mm 193 W/m2
15:44 62.1 °F /  16.7 °C 55.4 °F /  13 °C 30in /  1017.3hPa ENE 2.9mph /  4.7km/h 9mph /  14.5km/h 79% 0in /  0.0mm 274 W/m2
15:49 62.2 °F /  16.8 °C 55.9 °F /  13.3 °C 30in /  1017.3hPa West 0.9mph /  1.4km/h 3mph /  4.8km/h 80% 0in /  0.0mm 302 W/m2
15:54 62.4 °F /  16.9 °C 55.8 °F /  13.2 °C 30in /  1017.3hPa NNW 2.9mph /  4.7km/h 9mph /  14.5km/h 79% 0in /  0.0mm 160 W/m2
15:59 62.4 °F /  16.9 °C 55.4 °F /  13 °C 30in /  1016.9hPa WNW 10.1mph /  16.3km/h 11mph /  17.7km/h 78% 0in /  0.0mm 327 W/m2
16:04 62.4 °F /  16.9 °C 55 °F /  12.8 °C 30in /  1016.9hPa NW 2mph /  3.2km/h 8mph /  12.9km/h 77% 0in /  0.0mm 209 W/m2
16:09 62.6 °F /  17 °C 55.2 °F /  12.9 °C 30in /  1017.3hPa WNW 2.9mph /  4.7km/h 7mph /  11.3km/h 77% 0in /  0.0mm 246 W/m2
16:14 62.8 °F /  17.1 °C 55 °F /  12.8 °C 30in /  1017.3hPa NW 2.9mph /  4.7km/h 8mph /  12.9km/h 76% 0in /  0.0mm 304 W/m2
16:19 63 °F /  17.2 °C 55.2 °F /  12.9 °C 30in /  1016.9hPa NNE 2mph /  3.2km/h 3mph /  4.8km/h 76% 0in /  0.0mm 220 W/m2
16:24 63 °F /  17.2 °C 55.2 °F /  12.9 °C 30in /  1016.9hPa West 8.9mph /  14.3km/h 13mph /  20.9km/h 76% 0in /  0.0mm 167 W/m2
16:29 62.8 °F /  17.1 °C 55 °F /  12.8 °C 30in /  1016.9hPa WNW 4.9mph /  7.9km/h 9mph /  14.5km/h 76% 0in /  0.0mm 149 W/m2
16:34 62.4 °F /  16.9 °C 55 °F /  12.8 °C 30in /  1016.9hPa West 2mph /  3.2km/h 13mph /  20.9km/h 77% 0in /  0.0mm 135 W/m2
16:39 62.4 °F /  16.9 °C 55 °F /  12.8 °C 30in /  1016.9hPa East 2mph /  3.2km/h 3mph /  4.8km/h 77% 0in /  0.0mm 104 W/m2
16:44 62.2 °F /  16.8 °C 54.9 °F /  12.7 °C 30in /  1016.9hPa WSW 2mph /  3.2km/h 7mph /  11.3km/h 77% 0in /  0.0mm 83 W/m2
16:49 62.2 °F /  16.8 °C 54.9 °F /  12.7 °C 30in /  1017.3hPa WNW 4.9mph /  7.9km/h 9mph /  14.5km/h 77% 0in /  0.0mm 69 W/m2
16:55 62.2 °F /  16.8 °C 55.2 °F /  12.9 °C 30in /  1017.3hPa NW 2.9mph /  4.7km/h 5mph /  8km/h 78% 0in /  0.0mm 74 W/m2
17:00 62.1 °F /  16.7 °C 55 °F /  12.8 °C 30in /  1017.3hPa South 2mph /  3.2km/h 9mph /  14.5km/h 78% 0in /  0.0mm 90 W/m2
17:05 62.1 °F /  16.7 °C 54.7 °F /  12.6 °C 30in /  1017.3hPa SW 2mph /  3.2km/h 8mph /  12.9km/h 77% 0in /  0.0mm 105 W/m2
17:10 62.1 °F /  16.7 °C 55 °F /  12.8 °C 30in /  1017.3hPa WNW 2.9mph /  4.7km/h 10mph /  16.1km/h 78% 0in /  0.0mm 100 W/m2
17:15 62.1 °F /  16.7 °C 55 °F /  12.8 °C 30in /  1017.3hPa NNE 0.9mph /  1.4km/h 7mph /  11.3km/h 78% 0in /  0.0mm 109 W/m2
17:20 62.1 °F /  16.7 °C 55 °F /  12.8 °C 30in /  1017.3hPa SSW 0.9mph /  1.4km/h 10mph /  16.1km/h 78% 0in /  0.0mm 102 W/m2
17:25 62.1 °F /  16.7 °C 55 °F /  12.8 °C 30in /  1016.9hPa Calm   8mph /  12.9km/h 78% 0in /  0.0mm 100 W/m2
17:30 62.1 °F /  16.7 °C 55 °F /  12.8 °C 30in /  1016.9hPa NE 2mph /  3.2km/h 5mph /  8km/h 78% 0in /  0.0mm 81 W/m2
17:35 62.2 °F /  16.8 °C 55.2 °F /  12.9 °C 30in /  1017.3hPa NW 2mph /  3.2km/h 3mph /  4.8km/h 78% 0in /  0.0mm 67 W/m2
17:40 62.1 °F /  16.7 °C 55 °F /  12.8 °C 30in /  1017.3hPa WNW 2mph /  3.2km/h 11mph /  17.7km/h 78% 0in /  0.0mm 51 W/m2
17:45 62.1 °F /  16.7 °C 55.4 °F /  13 °C 30in /  1017.3hPa ENE 2.9mph /  4.7km/h 6mph /  9.7km/h 79% 0in /  0.0mm 47 W/m2
17:50 62.1 °F /  16.7 °C 55.4 °F /  13 °C 30in /  1017.3hPa West 4mph /  6.4km/h 11mph /  17.7km/h 79% 0in /  0.0mm 35 W/m2
17:55 61.9 °F /  16.6 °C 55.6 °F /  13.1 °C 30in /  1017.3hPa WNW 2mph /  3.2km/h 5mph /  8km/h 80% 0in /  0.0mm 40 W/m2
18:00 61.9 °F /  16.6 °C 55.6 °F /  13.1 °C 30.1in /  1017.6hPa WNW 4mph /  6.4km/h 8mph /  12.9km/h 80% 0in /  0.0mm 32 W/m2
18:05 61.5 °F /  16.4 °C 55.6 °F /  13.1 °C 30.1in /  1017.6hPa SW 4.9mph /  7.9km/h 17mph /  27.4km/h 81% 0in /  0.0mm 39 W/m2
18:10 61.3 °F /  16.3 °C 55.8 °F /  13.2 °C 30.1in /  1017.6hPa NW 6mph /  9.7km/h 8mph /  12.9km/h 82% 0in /  0.0mm 23 W/m2
18:15 61 °F /  16.1 °C 55.8 °F /  13.2 °C 30.1in /  1017.6hPa NW 4mph /  6.4km/h 17mph /  27.4km/h 83% 0in /  0.0mm 35 W/m2
18:20 60.4 °F /  15.8 °C 55.6 °F /  13.1 °C 30.1in /  1017.6hPa NW 4mph /  6.4km/h 8mph /  12.9km/h 84% 0in /  0.0mm 19 W/m2
18:25 60.4 °F /  15.8 °C 55.6 °F /  13.1 °C 30.1in /  1018.0hPa NW 4mph /  6.4km/h 10mph /  16.1km/h 84% 0in /  0.0mm 18 W/m2
18:30 60.3 °F /  15.7 °C 55.8 °F /  13.2 °C 30.1in /  1018.0hPa NW 2mph /  3.2km/h 2mph /  3.2km/h 85% 0in /  0.0mm 16 W/m2
18:35 59.9 °F /  15.5 °C 55.9 °F /  13.3 °C 30.1in /  1017.6hPa SSE 8.1mph /  13km/h 9mph /  14.5km/h 87% 0in /  0.0mm 19 W/m2
18:40 59.5 °F /  15.3 °C 55.6 °F /  13.1 °C 30.1in /  1017.6hPa NNE 4mph /  6.4km/h 7mph /  11.3km/h 87% 0in /  0.0mm 14 W/m2
18:45 59.4 °F /  15.2 °C 55.8 °F /  13.2 °C 30.1in /  1017.6hPa NW 2mph /  3.2km/h 9mph /  14.5km/h 88% 0in /  0.0mm 9 W/m2
18:50 59.2 °F /  15.1 °C 55.6 °F /  13.1 °C 30.1in /  1018.0hPa WSW 2.9mph /  4.7km/h 8mph /  12.9km/h 88% 0in /  0.0mm 5 W/m2
18:55 59.2 °F /  15.1 °C 55.6 °F /  13.1 °C 30.1in /  1018.0hPa NNW 4mph /  6.4km/h 9mph /  14.5km/h 88% 0in /  0.0mm 0 W/m2
19:00 59.2 °F /  15.1 °C 55.9 °F /  13.3 °C 30.1in /  1018.0hPa WSW 2.9mph /  4.7km/h 8mph /  12.9km/h 89% 0in /  0.0mm 0 W/m2
19:05 59 °F /  15 °C 55.8 °F /  13.2 °C 30.1in /  1018.0hPa ESE 0.9mph /  1.4km/h 7mph /  11.3km/h 89% 0in /  0.0mm 0 W/m2
19:10 58.8 °F /  14.9 °C 55.6 °F /  13.1 °C 30.1in /  1018.0hPa NE 2mph /  3.2km/h 4mph /  6.4km/h 89% 0in /  0.0mm 0 W/m2
19:15 58.8 °F /  14.9 °C 55.6 °F /  13.1 °C 30.1in /  1018.0hPa NNE 2mph /  3.2km/h 4mph /  6.4km/h 89% 0in /  0.0mm 0 W/m2
19:20 58.8 °F /  14.9 °C 55.6 °F /  13.1 °C 30.1in /  1018.0hPa WNW 4mph /  6.4km/h 8mph /  12.9km/h 89% 0in /  0.0mm 0 W/m2
19:26 58.8 °F /  14.9 °C 55.6 °F /  13.1 °C 30.1in /  1018.0hPa North 2mph /  3.2km/h 3mph /  4.8km/h 89% 0in /  0.0mm 0 W/m2
19:31 58.8 °F /  14.9 °C 55.6 °F /  13.1 °C 30.1in /  1018.0hPa NNW 8.9mph /  14.3km/h 11mph /  17.7km/h 89% 0in /  0.0mm 0 W/m2
19:36 58.8 °F /  14.9 °C 55.6 °F /  13.1 °C 30.1in /  1018.0hPa NNW 4mph /  6.4km/h 4mph /  6.4km/h 89% 0in /  0.0mm 0 W/m2
19:41 58.8 °F /  14.9 °C 55.6 °F /  13.1 °C 30.1in /  1018.0hPa North 0.9mph /  1.4km/h 10mph /  16.1km/h 89% 0in /  0.0mm 0 W/m2
19:46 58.8 °F /  14.9 °C 55.6 °F /  13.1 °C 30.1in /  1018.3hPa North 8.1mph /  13km/h 8mph /  12.9km/h 89% 0in /  0.0mm 0 W/m2
19:51 58.8 °F /  14.9 °C 55.6 °F /  13.1 °C 30.1in /  1018.3hPa NNW 2.9mph /  4.7km/h 7mph /  11.3km/h 89% 0in /  0.0mm 0 W/m2
19:56 58.8 °F /  14.9 °C 55.6 °F /  13.1 °C 30.1in /  1018.3hPa WSW 0.9mph /  1.4km/h 10mph /  16.1km/h 89% 0in /  0.0mm 0 W/m2
20:01 58.8 °F /  14.9 °C 55.6 °F /  13.1 °C 30.1in /  1018.3hPa NNW 2mph /  3.2km/h 6mph /  9.7km/h 89% 0in /  0.0mm 0 W/m2
20:06 58.8 °F /  14.9 °C 55.6 °F /  13.1 °C 30.1in /  1018.6hPa NW 0.9mph /  1.4km/h 8mph /  12.9km/h 89% 0in /  0.0mm 0 W/m2
20:11 58.8 °F /  14.9 °C 55.6 °F /  13.1 °C 30.1in /  1018.3hPa NW 2.9mph /  4.7km/h 5mph /  8km/h 89% 0in /  0.0mm 0 W/m2
20:16 58.8 °F /  14.9 °C 55.6 °F /  13.1 °C 30.1in /  1018.3hPa NE 0.9mph /  1.4km/h 8mph /  12.9km/h 89% 0in /  0.0mm 0 W/m2
20:21 58.8 °F /  14.9 °C 55.6 °F /  13.1 °C 30.1in /  1018.3hPa NNE 2mph /  3.2km/h 5mph /  8km/h 89% 0in /  0.0mm 0 W/m2
20:26 58.8 °F /  14.9 °C 55.6 °F /  13.1 °C 30.1in /  1018.3hPa Calm   4mph /  6.4km/h 89% 0in /  0.0mm 0 W/m2
20:31 58.8 °F /  14.9 °C 55.6 °F /  13.1 °C 30.1in /  1018.3hPa WSW 2mph /  3.2km/h 5mph /  8km/h 89% 0in /  0.0mm 0 W/m2
20:36 58.6 °F /  14.8 °C 55.4 °F /  13 °C 30.1in /  1018.3hPa WNW 2.9mph /  4.7km/h 3mph /  4.8km/h 89% 0in /  0.0mm 0 W/m2
20:41 58.6 °F /  14.8 °C 55.8 °F /  13.2 °C 30.1in /  1018.3hPa NNE 2.9mph /  4.7km/h 4mph /  6.4km/h 90% 0in /  0.0mm 0 W/m2
20:46 58.6 °F /  14.8 °C 55.8 °F /  13.2 °C 30.1in /  1018.3hPa NNW 0.9mph /  1.4km/h 3mph /  4.8km/h 90% 0in /  0.0mm 0 W/m2
20:51 58.5 °F /  14.7 °C 55.6 °F /  13.1 °C 30.1in /  1018.3hPa SSW 4.9mph /  7.9km/h 9mph /  14.5km/h 90% 0in /  0.0mm 0 W/m2
20:56 58.6 °F /  14.8 °C 55.8 °F /  13.2 °C 30.1in /  1018.6hPa NNW 4mph /  6.4km/h 4mph /  6.4km/h 90% 0in /  0.0mm 0 W/m2
21:01 58.6 °F /  14.8 °C 55.8 °F /  13.2 °C 30.1in /  1018.6hPa WSW 4.9mph /  7.9km/h 8mph /  12.9km/h 90% 0in /  0.0mm 0 W/m2
21:06 58.6 °F /  14.8 °C 55.8 °F /  13.2 °C 30.1in /  1018.6hPa West 2.9mph /  4.7km/h 4mph /  6.4km/h 90% 0in /  0.0mm 0 W/m2
21:11 58.6 °F /  14.8 °C 55.8 °F /  13.2 °C 30.1in /  1018.6hPa Calm   8mph /  12.9km/h 90% 0in /  0.0mm 0 W/m2
21:16 58.8 °F /  14.9 °C 55.6 °F /  13.1 °C 30.1in /  1018.6hPa NNW 2.9mph /  4.7km/h 3mph /  4.8km/h 89% 0in /  0.0mm 0 W/m2
21:21 58.8 °F /  14.9 °C 55.6 °F /  13.1 °C 30.1in /  1018.6hPa North 2mph /  3.2km/h 6mph /  9.7km/h 89% 0in /  0.0mm 0 W/m2
21:26 58.8 °F /  14.9 °C 55.6 °F /  13.1 °C 30.1in /  1018.6hPa NE 0.9mph /  1.4km/h 2mph /  3.2km/h 89% 0in /  0.0mm 0 W/m2
21:31 58.8 °F /  14.9 °C 55.6 °F /  13.1 °C 30.1in /  1018.6hPa NW 2.9mph /  4.7km/h 4mph /  6.4km/h 89% 0in /  0.0mm 0 W/m2
21:36 58.8 °F /  14.9 °C 55.6 °F /  13.1 °C 30.1in /  1018.6hPa NW 6mph /  9.7km/h 8mph /  12.9km/h 89% 0in /  0.0mm 0 W/m2
21:41 58.8 °F /  14.9 °C 55.6 °F /  13.1 °C 30.1in /  1018.6hPa NE 2.9mph /  4.7km/h 3mph /  4.8km/h 89% 0in /  0.0mm 0 W/m2
21:46 58.8 °F /  14.9 °C 55.6 °F /  13.1 °C 30.1in /  1018.6hPa NNE 0.9mph /  1.4km/h 8mph /  12.9km/h 89% 0in /  0.0mm 0 W/m2
21:51 58.8 °F /  14.9 °C 55.6 °F /  13.1 °C 30.1in /  1018.6hPa North 0.9mph /  1.4km/h 3mph /  4.8km/h 89% 0in /  0.0mm 0 W/m2
21:56 58.8 °F /  14.9 °C 55.6 °F /  13.1 °C 30.1in /  1018.6hPa NNW 0.9mph /  1.4km/h 2mph /  3.2km/h 89% 0in /  0.0mm 0 W/m2
22:01 58.8 °F /  14.9 °C 55.6 °F /  13.1 °C 30.1in /  1018.6hPa NNW 2.9mph /  4.7km/h 3mph /  4.8km/h 89% 0in /  0.0mm 0 W/m2
22:06 58.8 °F /  14.9 °C 55.2 °F /  12.9 °C 30.1in /  1018.6hPa NE 2.9mph /  4.7km/h 4mph /  6.4km/h 88% 0in /  0.0mm 0 W/m2
22:11 59 °F /  15 °C 55.4 °F /  13 °C 30.1in /  1018.6hPa NNW 0.9mph /  1.4km/h 2mph /  3.2km/h 88% 0in /  0.0mm 0 W/m2
22:16 59 °F /  15 °C 55.4 °F /  13 °C 30.1in /  1018.6hPa South 4mph /  6.4km/h 9mph /  14.5km/h 88% 0in /  0.0mm 0 W/m2
22:21 59 °F /  15 °C 55.4 °F /  13 °C 30.1in /  1018.6hPa North 2.9mph /  4.7km/h 10mph /  16.1km/h 88% 0in /  0.0mm 0 W/m2
22:26 59.2 °F /  15.1 °C 55.6 °F /  13.1 °C 30.1in /  1018.6hPa West 4mph /  6.4km/h 5mph /  8km/h 88% 0in /  0.0mm 0 W/m2
22:31 59.4 °F /  15.2 °C 55.4 °F /  13 °C 30.1in /  1018.6hPa NW 2mph /  3.2km/h 10mph /  16.1km/h 87% 0in /  0.0mm 0 W/m2
22:36 59.4 °F /  15.2 °C 55.4 °F /  13 °C 30.1in /  1018.6hPa WNW 4mph /  6.4km/h 7mph /  11.3km/h 87% 0in /  0.0mm 0 W/m2
22:41 59.4 °F /  15.2 °C 55.2 °F /  12.9 °C 30.1in /  1018.6hPa North 4mph /  6.4km/h 4mph /  6.4km/h 86% 0in /  0.0mm 0 W/m2
22:46 59.4 °F /  15.2 °C 55.2 °F /  12.9 °C 30.1in /  1018.6hPa WNW 6.9mph /  11.1km/h 7mph /  11.3km/h 86% 0in /  0.0mm 0 W/m2
22:52 59.4 °F /  15.2 °C 55.2 °F /  12.9 °C 30.1in /  1018.6hPa NNW 2.9mph /  4.7km/h 8mph /  12.9km/h 86% 0in /  0.0mm 0 W/m2
22:57 59.5 °F /  15.3 °C 55.4 °F /  13 °C 30.1in /  1018.6hPa NW 2.9mph /  4.7km/h 6mph /  9.7km/h 86% 0in /  0.0mm 0 W/m2
23:02 59.4 °F /  15.2 °C 55.2 °F /  12.9 °C 30.1in /  1018.6hPa NNW 4mph /  6.4km/h 7mph /  11.3km/h 86% 0in /  0.0mm 0 W/m2
23:07 59.4 °F /  15.2 °C 55.2 °F /  12.9 °C 30.1in /  1018.6hPa North 2mph /  3.2km/h 4mph /  6.4km/h 86% 0in /  0.0mm 0 W/m2
23:12 59.4 °F /  15.2 °C 55.2 °F /  12.9 °C 30.1in /  1018.6hPa SW 2.9mph /  4.7km/h 9mph /  14.5km/h 86% 0in /  0.0mm 0 W/m2
23:17 59.4 °F /  15.2 °C 55.2 °F /  12.9 °C 30.1in /  1018.6hPa North 2mph /  3.2km/h 5mph /  8km/h 86% 0in /  0.0mm 0 W/m2
23:22 59.4 °F /  15.2 °C 55.4 °F /  13 °C 30.1in /  1018.6hPa NNE 2.9mph /  4.7km/h 9mph /  14.5km/h 87% 0in /  0.0mm 0 W/m2
23:27 59.4 °F /  15.2 °C 55.4 °F /  13 °C 30.1in /  1018.3hPa Calm   8mph /  12.9km/h 87% 0in /  0.0mm 0 W/m2
23:32 59.2 °F /  15.1 °C 55 °F /  12.8 °C 30.1in /  1018.6hPa Calm   4mph /  6.4km/h 86% 0in /  0.0mm 0 W/m2
23:37 59.4 °F /  15.2 °C 55.2 °F /  12.9 °C 30.1in /  1018.3hPa East 4mph /  6.4km/h 9mph /  14.5km/h 86% 0in /  0.0mm 0 W/m2
23:42 59.4 °F /  15.2 °C 55.2 °F /  12.9 °C 30.1in /  1018.3hPa North 2.9mph /  4.7km/h 9mph /  14.5km/h 86% 0in /  0.0mm 0 W/m2
23:47 59.4 °F /  15.2 °C 55.2 °F /  12.9 °C 30.1in /  1018.3hPa NNW 0.9mph /  1.4km/h 5mph /  8km/h 86% 0in /  0.0mm 0 W/m2
23:52 59.4 °F /  15.2 °C 55.2 °F /  12.9 °C 30.1in /  1018.3hPa NW 0.9mph /  1.4km/h 3mph /  4.8km/h 86% 0in /  0.0mm 0 W/m2
23:57 59.2 °F /  15.1 °C 55 °F /  12.8 °C 30.1in /  1018.3hPa North 2.9mph /  4.7km/h 5mph /  8km/h 86% 0in /  0.0mm 0 W/m2
Juneau County Weather
Compliments of Weather Underground - 4 mb